地図

経路データ

SID SEASON NUMBER BASIN SUBBASIN NAME ISO_TIME NATURE LAT LON WMO_WIND WMO_PRES WMO_AGENCY TRACK_TYPE DIST2LAND LANDFALL IFLAG USA_AGENCY USA_ATCF_ID USA_LAT USA_LON USA_RECORD USA_STATUS USA_WIND USA_PRES USA_SSHS USA_R34_NE USA_R34_SE USA_R34_SW USA_R34_NW USA_R50_NE USA_R50_SE USA_R50_SW USA_R50_NW USA_R64_NE USA_R64_SE USA_R64_SW USA_R64_NW USA_POCI USA_ROCI USA_RMW USA_EYE TOKYO_LAT TOKYO_LON TOKYO_GRADE TOKYO_WIND TOKYO_PRES TOKYO_R50_DIR TOKYO_R50_LONG TOKYO_R50_SHORT TOKYO_R30_DIR TOKYO_R30_LONG TOKYO_R30_SHORT TOKYO_LAND CMA_LAT CMA_LON CMA_CAT CMA_WIND CMA_PRES HKO_LAT HKO_LON HKO_CAT HKO_WIND HKO_PRES NEWDELHI_LAT NEWDELHI_LON NEWDELHI_GRADE NEWDELHI_WIND NEWDELHI_PRES NEWDELHI_CI NEWDELHI_DP NEWDELHI_POCI REUNION_LAT REUNION_LON REUNION_TYPE REUNION_WIND REUNION_PRES REUNION_TNUM REUNION_CI REUNION_RMW REUNION_R34_NE REUNION_R34_SE REUNION_R34_SW REUNION_R34_NW REUNION_R50_NE REUNION_R50_SE REUNION_R50_SW REUNION_R50_NW REUNION_R64_NE REUNION_R64_SE REUNION_R64_SW REUNION_R64_NW BOM_LAT BOM_LON BOM_TYPE BOM_WIND BOM_PRES BOM_TNUM BOM_CI BOM_RMW BOM_R34_NE BOM_R34_SE BOM_R34_SW BOM_R34_NW BOM_R50_NE BOM_R50_SE BOM_R50_SW BOM_R50_NW BOM_R64_NE BOM_R64_SE BOM_R64_SW BOM_R64_NW BOM_ROCI BOM_POCI BOM_EYE BOM_POS_METHOD BOM_PRES_METHOD NADI_LAT NADI_LON NADI_CAT NADI_WIND NADI_PRES WELLINGTON_LAT WELLINGTON_LON WELLINGTON_WIND WELLINGTON_PRES DS824_LAT DS824_LON DS824_STAGE DS824_WIND DS824_PRES TD9636_LAT TD9636_LON TD9636_STAGE TD9636_WIND TD9636_PRES TD9635_LAT TD9635_LON TD9635_WIND TD9635_PRES TD9635_ROCI NEUMANN_LAT NEUMANN_LON NEUMANN_CLASS NEUMANN_WIND NEUMANN_PRES MLC_LAT MLC_LON MLC_CLASS MLC_WIND MLC_PRES USA_GUST BOM_GUST BOM_GUST_PER REUNION_GUST REUNION_GUST_PER USA_SEAHGT USA_SEARAD_NE USA_SEARAD_SE USA_SEARAD_SW USA_SEARAD_NW STORM_SPEED STORM_DIR
1885032S16077 1885 7 SI MM NOT_NAMED 1885-01-31 18:00:00 NR -15.6000 77.3000 main 2127 2072 __________O___ -1 -15.6000 77.3000 7 10 258
1885032S16077 1885 7 SI MM NOT_NAMED 1885-01-31 21:00:00 NR -15.7041 76.8083 main 2072 2018 __________P___ -1 -15.7041 76.8083 7 10 258
1885032S16077 1885 7 SI MM NOT_NAMED 1885-02-01 00:00:00 NR -15.8060 76.3230 main 2018 1974 __________P___ -1 -15.8060 76.3230 7 9 258
1885032S16077 1885 7 SI MM NOT_NAMED 1885-02-01 03:00:00 NR -15.9050 75.8512 main 1974 1919 __________P___ -1 -15.9050 75.8512 7 9 258
1885032S16077 1885 7 SI MM NOT_NAMED 1885-02-01 06:00:00 NR -16.0000 75.4000 main 1919 1875 __________O___ -1 -16.0000 75.4000 7 9 258
1885032S16077 1885 7 SI MM NOT_NAMED 1885-02-01 09:00:00 NR -16.0915 74.9741 main 1875 1831 __________P___ -1 -16.0915 74.9741 7 8 257
1885032S16077 1885 7 SI MM NOT_NAMED 1885-02-01 12:00:00 NR -16.1845 74.5696 main 1831 1787 __________P___ -1 -16.1845 74.5696 7 8 256
1885032S16077 1885 7 SI MM NOT_NAMED 1885-02-01 15:00:00 NR -16.2853 74.1804 main 1787 1743 __________P___ -1 -16.2853 74.1804 7 8 254
1885032S16077 1885 7 SI MM NOT_NAMED 1885-02-01 18:00:00 NR -16.4000 73.8000 main 1743 1699 __________O___ -1 -16.4000 73.8000 7 8 251
1885032S16077 1885 7 SI MM NOT_NAMED 1885-02-01 21:00:00 NR -16.5394 73.4178 main 1699 1662 __________P___ -1 -16.5394 73.4178 7 8 248
1885032S16077 1885 7 SI MM NOT_NAMED 1885-02-02 00:00:00 NR -16.6921 73.0425 main 1651 1618 __________P___ -1 -16.6921 73.0425 7 8 247
1885032S16077 1885 7 SI MM NOT_NAMED 1885-02-02 03:00:00 NR -16.8488 72.6709 main 1618 1571 __________P___ -1 -16.8488 72.6709 7 8 247
1885032S16077 1885 7 SI MM NOT_NAMED 1885-02-02 06:00:00 NR -17.0000 72.3000 main 1571 1537 __________O___ -1 -17.0000 72.3000 7 8 248
1885032S16077 1885 7 SI MM NOT_NAMED 1885-02-02 09:00:00 NR -17.1236 71.9408 main 1527 1493 __________P___ -1 -17.1236 71.9408 7 7 251
1885032S16077 1885 7 SI MM NOT_NAMED 1885-02-02 12:00:00 NR -17.2419 71.5793 main 1493 1446 __________P___ -1 -17.2419 71.5793 7 7 251
1885032S16077 1885 7 SI MM NOT_NAMED 1885-02-02 15:00:00 NR -17.3642 71.2032 main 1446 1402 __________P___ -1 -17.3642 71.2032 7 8 251
1885032S16077 1885 7 SI MM NOT_NAMED 1885-02-02 18:00:00 NR -17.5000 70.8000 main 1402 1355 __________O___ -1 -17.5000 70.8000 7 9 250
1885032S16077 1885 7 SI MM NOT_NAMED 1885-02-02 21:00:00 NR -17.6649 70.3377 main 1345 1301 __________P___ -1 -17.6649 70.3377 7 10 249
1885032S16077 1885 7 SI MM NOT_NAMED 1885-02-03 00:00:00 NR -17.8429 69.8503 main 1301 1245 __________P___ -1 -17.8429 69.8503 7 10 249
1885032S16077 1885 7 SI MM NOT_NAMED 1885-02-03 03:00:00 NR -18.0243 69.3627 main 1245 1188 __________P___ -1 -18.0243 69.3627 7 10 248
1885032S16077 1885 7 SI MM NOT_NAMED 1885-02-03 06:00:00 NR -18.2000 68.9000 main 1188 1144 __________O___ -1 -18.2000 68.9000 7 9 248
1885032S16077 1885 7 SI MM NOT_NAMED 1885-02-03 09:00:00 NR -18.3568 68.4878 main 1142 1098 __________P___ -1 -18.3568 68.4878 7 8 248
1885032S16077 1885 7 SI MM NOT_NAMED 1885-02-03 12:00:00 NR -18.5070 68.1046 main 1098 1065 __________P___ -1 -18.5070 68.1046 7 8 247
1885032S16077 1885 7 SI MM NOT_NAMED 1885-02-03 15:00:00 NR -18.6537 67.7441 main 1052 1019 __________P___ -1 -18.6537 67.7441 7 7 246
1885032S16077 1885 7 SI MM NOT_NAMED 1885-02-03 18:00:00 NR -18.8000 67.4000 main 1019 986 __________O___ -1 -18.8000 67.4000 7 7 245
1885032S16077 1885 7 SI MM NOT_NAMED 1885-02-03 21:00:00 NR -18.9579 67.0524 main 984 941 __________P___ -1 -18.9579 67.0524 7 7 244
1885032S16077 1885 7 SI MM NOT_NAMED 1885-02-04 00:00:00 NR -19.1147 66.7199 main 941 906 __________P___ -1 -19.1147 66.7199 7 7 243
1885032S16077 1885 7 SI MM NOT_NAMED 1885-02-04 03:00:00 NR -19.2642 66.4025 main 906 873 __________P___ -1 -19.2642 66.4025 7 7 244
1885032S16077 1885 7 SI MM NOT_NAMED 1885-02-04 06:00:00 NR -19.4000 66.1000 main 873 841 __________O___ -1 -19.4000 66.1000 7 6 246
1885032S16077 1885 7 SI MM NOT_NAMED 1885-02-04 09:00:00 NR -19.5101 65.8103 main 841 808 __________P___ -1 -19.5101 65.8103 7 6 249
1885032S16077 1885 7 SI MM NOT_NAMED 1885-02-04 12:00:00 NR -19.6072 65.5346 main 808 786 __________P___ -1 -19.6072 65.5346 7 5 250
1885032S16077 1885 7 SI MM NOT_NAMED 1885-02-04 15:00:00 NR -19.7007 65.2666 main 786 754 __________P___ -1 -19.7007 65.2666 7 5 249
1885032S16077 1885 7 SI MM NOT_NAMED 1885-02-04 18:00:00 NR -19.8000 65.0000 main 754 732 __________O___ -1 -19.8000 65.0000 7 5 247
1885032S16077 1885 7 SI MM NOT_NAMED 1885-02-04 21:00:00 NR -19.9094 64.7410 main 721 700 __________P___ -1 -19.9094 64.7410 7 5 245
1885032S16077 1885 7 SI MM NOT_NAMED 1885-02-05 00:00:00 NR -20.0270 64.4795 main 700 668 __________P___ -1 -20.0270 64.4795 7 6 244
1885032S16077 1885 7 SI MM NOT_NAMED 1885-02-05 03:00:00 NR -20.1562 64.2034 main 667 636 __________P___ -1 -20.1562 64.2034 7 6 243
1885032S16077 1885 7 SI MM NOT_NAMED 1885-02-05 06:00:00 NR -20.3000 63.9000 main 636 604 __________O___ -1 -20.3000 63.9000 7 7 244
1885032S16077 1885 7 SI MM NOT_NAMED 1885-02-05 09:00:00 NR -20.4565 63.5577 main 604 563 __________P___ -1 -20.4565 63.5577 7 7 244
1885032S16077 1885 7 SI MM NOT_NAMED 1885-02-05 12:00:00 NR -20.6274 63.1873 main 563 523 __________P___ -1 -20.6274 63.1873 7 8 244
1885032S16077 1885 7 SI MM NOT_NAMED 1885-02-05 15:00:00 NR -20.8096 62.7983 main 523 484 __________P___ -1 -20.8096 62.7983 7 8 243
1885032S16077 1885 7 SI MM NOT_NAMED 1885-02-05 18:00:00 NR -21.0000 62.4000 main 484 448 __________O___ -1 -21.0000 62.4000 7 8 242
1885032S16077 1885 7 SI MM NOT_NAMED 1885-02-05 21:00:00 NR -21.1925 62.0110 main 448 413 __________P___ -1 -21.1925 62.0110 7 8 242
1885032S16077 1885 7 SI MM NOT_NAMED 1885-02-06 00:00:00 NR -21.3921 61.6147 main 413 381 __________P___ -1 -21.3921 61.6147 7 8 242
1885032S16077 1885 7 SI MM NOT_NAMED 1885-02-06 03:00:00 NR -21.5956 61.2110 main 381 352 __________P___ -1 -21.5956 61.2110 7 9 242
1885032S16077 1885 7 SI MM NOT_NAMED 1885-02-06 06:00:00 NR -21.8000 60.8000 main 352 326 __________O___ -1 -21.8000 60.8000 7 9 243
1885032S16077 1885 7 SI MM NOT_NAMED 1885-02-06 09:00:00 NR -21.9999 60.3738 main 326 304 __________P___ -1 -21.9999 60.3738 7 9 243
1885032S16077 1885 7 SI MM NOT_NAMED 1885-02-06 12:00:00 NR -22.1999 59.9422 main 296 281 __________P___ -1 -22.1999 59.9422 7 9 243
1885032S16077 1885 7 SI MM NOT_NAMED 1885-02-06 15:00:00 NR -22.3999 59.5145 main 282 272 __________P___ -1 -22.3999 59.5145 7 9 243
1885032S16077 1885 7 SI MM NOT_NAMED 1885-02-06 18:00:00 NR -22.6000 59.1000 main 275 270 __________O___ -1 -22.6000 59.1000 7 8 242
1885032S16077 1885 7 SI MM NOT_NAMED 1885-02-06 21:00:00 NR -22.7995 58.7142 main 277 273 __________P___ -1 -22.7995 58.7142 7 8 240
1885032S16077 1885 7 SI MM NOT_NAMED 1885-02-07 00:00:00 NR -22.9993 58.3419 main 286 286 __________P___ -1 -22.9993 58.3419 7 8 240
1885032S16077 1885 7 SI MM NOT_NAMED 1885-02-07 03:00:00 NR -23.1995 57.9736 main 303 296 __________P___ -1 -23.1995 57.9736 7 8 240
1885032S16077 1885 7 SI MM NOT_NAMED 1885-02-07 06:00:00 NR -23.4000 57.6000 main 298 290 __________O___ -1 -23.4000 57.6000 7 8 241
1885032S16077 1885 7 SI MM NOT_NAMED 1885-02-07 09:00:00 NR -23.5958 57.2028 main 294 289 __________P___ -1 -23.5958 57.2028 7 8 242
1885032S16077 1885 7 SI MM NOT_NAMED 1885-02-07 12:00:00 NR -23.7923 56.7995 main 295 291 __________P___ -1 -23.7923 56.7995 7 8 242
1885032S16077 1885 7 SI MM NOT_NAMED 1885-02-07 15:00:00 NR -23.9927 56.3965 main 302 299 __________P___ -1 -23.9927 56.3965 7 8 241
1885032S16077 1885 7 SI MM NOT_NAMED 1885-02-07 18:00:00 NR -24.2000 56.0000 main 315 314 __________O___ -1 -24.2000 56.0000 7 8 239
1885032S16077 1885 7 SI MM NOT_NAMED 1885-02-07 21:00:00 NR -24.4165 55.6147 main 335 335 __________P___ -1 -24.4165 55.6147 7 8 238
1885032S16077 1885 7 SI MM NOT_NAMED 1885-02-08 00:00:00 NR -24.6406 55.2386 main 360 360 __________P___ -1 -24.6406 55.2386 7 8 236
1885032S16077 1885 7 SI MM NOT_NAMED 1885-02-08 03:00:00 NR -24.8693 54.8682 main 397 397 __________P___ -1 -24.8693 54.8682 7 8 236
1885032S16077 1885 7 SI MM NOT_NAMED 1885-02-08 06:00:00 NR -25.1000 54.5000 main 428 __________O___ -1 -25.1000 54.5000 7 8 235

IBTrACS Databaseについて

本データベースは、米国NOAAが公開する1842年以降の世界の熱帯低気圧のベストトラックデータアーカイブInternational Best Track Archive for Climate Stewardship (IBTrACS)を、ウェブで閲覧しやすい形式に変換したものです。

最終更新日:2021-10-27